createdAt,value
2022-09-21T00:01:22.602Z,97.90
2022-09-21T00:03:56.730Z,97.90
2022-09-21T00:06:25.383Z,97.90
2022-09-21T00:08:52.249Z,98.00
2022-09-21T00:11:21.971Z,98.00
2022-09-21T00:13:53.167Z,98.00
2022-09-21T00:16:20.484Z,97.90
2022-09-21T00:18:48.436Z,97.90
2022-09-21T00:21:16.347Z,97.90
2022-09-21T00:23:44.251Z,97.90
2022-09-21T00:26:12.360Z,97.90
2022-09-21T00:28:40.575Z,97.90
2022-09-21T00:31:12.349Z,98.00
2022-09-21T00:33:40.137Z,98.00
2022-09-21T00:36:09.482Z,98.00
2022-09-21T00:38:36.642Z,98.10
2022-09-21T00:41:04.795Z,98.10
2022-09-21T00:43:34.541Z,98.10
2022-09-21T00:46:10.931Z,98.20
2022-09-21T00:48:37.733Z,98.20
2022-09-21T00:51:06.946Z,98.20
2022-09-21T00:53:34.673Z,98.20
2022-09-21T00:56:03.080Z,98.10
2022-09-21T00:58:41.053Z,98.20
2022-09-21T01:01:07.910Z,98.20
2022-09-21T01:03:34.732Z,98.20
2022-09-21T01:06:01.476Z,98.20
2022-09-21T01:08:28.751Z,98.20
2022-09-21T01:11:22.838Z,98.20
2022-09-21T01:14:08.310Z,98.30
2022-09-21T01:16:56.726Z,98.20
2022-09-21T01:20:00.837Z,98.20
2022-09-21T01:23:05.298Z,98.30
2022-09-21T01:25:57.630Z,98.30
2022-09-21T01:29:01.633Z,98.30
2022-09-21T01:31:51.463Z,98.30
2022-09-21T01:35:03.532Z,98.30
2022-09-21T01:37:40.692Z,98.40
2022-09-21T01:40:25.232Z,98.30
2022-09-21T01:42:54.464Z,98.60
2022-09-21T01:45:27.542Z,98.30
2022-09-21T01:47:55.073Z,98.30
2022-09-21T01:50:22.165Z,98.40
2022-09-21T01:53:10.678Z,98.40
2022-09-21T01:55:43.000Z,98.50
2022-09-21T01:58:32.015Z,98.40
2022-09-21T02:00:58.885Z,98.50
2022-09-21T02:03:40.142Z,98.40
2022-09-21T02:06:07.374Z,98.50
2022-09-21T02:08:34.478Z,98.50
2022-09-21T02:11:03.074Z,98.50
2022-09-21T02:13:34.000Z,98.50
2022-09-21T02:16:06.588Z,98.60
2022-09-21T02:18:46.408Z,98.60
2022-09-21T02:21:25.810Z,98.90
2022-09-21T02:24:08.053Z,98.60
2022-09-21T02:26:45.740Z,98.60
2022-09-21T02:29:20.237Z,98.90
2022-09-21T02:31:46.838Z,98.60
2022-09-21T02:34:34.767Z,98.60
2022-09-21T02:37:19.705Z,98.60
2022-09-21T02:39:59.813Z,98.60
2022-09-21T02:42:36.478Z,98.60
2022-09-21T02:45:14.252Z,98.60
2022-09-21T02:47:50.622Z,98.60
2022-09-21T02:50:21.324Z,98.70
2022-09-21T02:52:48.316Z,98.70
2022-09-21T02:55:15.490Z,98.70
2022-09-21T02:57:42.709Z,98.70
2022-09-21T03:00:10.329Z,98.70
2022-09-21T03:02:42.420Z,98.80
2022-09-21T03:05:11.187Z,98.90
2022-09-21T03:07:37.979Z,98.90
2022-09-21T03:10:06.356Z,98.90
2022-09-21T03:12:33.139Z,98.90
2022-09-21T03:15:00.189Z,98.90
2022-09-21T03:17:27.753Z,98.90
2022-09-21T03:19:55.089Z,99.00
2022-09-21T03:22:23.168Z,99.00
2022-09-21T03:24:50.447Z,99.00
2022-09-21T03:27:20.611Z,99.00
2022-09-21T03:29:47.741Z,99.00
2022-09-21T03:32:14.877Z,99.00
2022-09-21T03:34:41.876Z,99.00
2022-09-21T03:37:10.907Z,99.00
2022-09-21T03:39:37.742Z,99.10
2022-09-21T03:42:04.957Z,99.10
2022-09-21T03:44:31.674Z,99.10
2022-09-21T03:46:58.417Z,99.10
2022-09-21T03:49:26.034Z,99.10
2022-09-21T03:51:52.666Z,99.10
2022-09-21T03:54:19.536Z,99.10
2022-09-21T03:56:46.349Z,99.50
2022-09-21T03:59:14.305Z,99.10
2022-09-21T04:01:41.743Z,99.10
2022-09-21T04:04:08.458Z,99.20
2022-09-21T04:06:35.429Z,99.20
2022-09-21T04:09:02.505Z,99.10
2022-09-21T04:11:30.062Z,99.20
2022-09-21T04:13:57.161Z,99.20
2022-09-21T04:16:27.609Z,99.20
2022-09-21T04:18:54.650Z,99.30
2022-09-21T04:21:22.431Z,99.30
2022-09-21T04:23:49.857Z,99.30
2022-09-21T04:26:28.278Z,99.30
2022-09-21T04:28:55.996Z,99.40
2022-09-21T04:31:24.164Z,99.40
2022-09-21T04:33:52.411Z,99.40
2022-09-21T04:36:20.297Z,99.40
2022-09-21T04:38:47.474Z,99.50
2022-09-21T04:41:15.267Z,99.50
2022-09-21T04:43:43.475Z,99.50
2022-09-21T04:46:12.763Z,99.60
2022-09-21T04:48:40.326Z,99.60
2022-09-21T04:51:08.015Z,99.60
2022-09-21T04:53:37.135Z,99.50
2022-09-21T04:56:05.774Z,99.60
2022-09-21T04:58:33.134Z,99.50
2022-09-21T05:01:00.045Z,99.50
2022-09-21T05:03:27.166Z,99.50
2022-09-21T05:05:56.462Z,99.50
2022-09-21T05:08:43.631Z,99.50
2022-09-21T05:11:13.653Z,99.40
2022-09-21T05:13:40.572Z,99.40
2022-09-21T05:16:07.883Z,99.80
2022-09-21T05:18:34.805Z,99.40
2022-09-21T05:21:02.980Z,99.50
2022-09-21T05:23:30.998Z,99.50
2022-09-21T05:25:58.465Z,99.40
2022-09-21T05:28:26.096Z,99.40
2022-09-21T05:31:17.746Z,99.40
2022-09-21T05:33:51.065Z,99.40
2022-09-21T05:36:45.623Z,99.40
2022-09-21T05:39:12.722Z,99.40
2022-09-21T05:41:39.907Z,99.40
2022-09-21T05:44:07.525Z,99.30
2022-09-21T05:46:40.311Z,99.30
2022-09-21T05:49:18.589Z,99.30
2022-09-21T05:51:55.105Z,99.30
2022-09-21T05:54:50.085Z,99.30
2022-09-21T05:57:57.222Z,99.30
2022-09-21T06:00:24.267Z,99.30
2022-09-21T06:02:57.930Z,99.20
2022-09-21T06:05:24.918Z,99.20
2022-09-21T06:07:51.618Z,99.10
2022-09-21T06:10:18.347Z,99.10
2022-09-21T06:12:45.190Z,99.10
2022-09-21T06:15:13.835Z,99.40
2022-09-21T06:17:41.010Z,99.00
2022-09-21T06:20:08.193Z,99.00
2022-09-21T06:22:35.600Z,99.00
2022-09-21T06:25:02.338Z,99.00
2022-09-21T06:27:29.443Z,98.90
2022-09-21T06:29:56.268Z,98.80
2022-09-21T06:32:23.128Z,98.70
2022-09-21T06:34:49.983Z,98.70
2022-09-21T06:37:17.102Z,98.70
2022-09-21T06:39:43.807Z,98.60
2022-09-21T06:42:10.610Z,98.60
2022-09-21T06:44:37.438Z,98.50
2022-09-21T06:47:04.331Z,98.40
2022-09-21T06:49:31.031Z,98.40
2022-09-21T06:51:58.161Z,98.30
2022-09-21T06:54:25.296Z,98.30
2022-09-21T06:56:52.007Z,98.20
2022-09-21T06:59:18.735Z,98.00
2022-09-21T07:01:45.481Z,98.00
2022-09-21T07:04:12.336Z,97.80
2022-09-21T07:06:39.033Z,97.70
2022-09-21T07:11:52.467Z,97.50
2022-09-21T07:14:19.365Z,97.60
2022-09-21T07:16:46.439Z,97.10
2022-09-21T07:19:13.258Z,96.80
2022-09-21T07:21:40.164Z,96.70
2022-09-21T07:24:11.203Z,96.60
2022-09-21T07:26:39.052Z,96.60
2022-09-21T07:29:05.918Z,96.40
2022-09-21T07:31:32.738Z,96.20
2022-09-21T07:33:59.574Z,96.00
2022-09-21T07:36:26.366Z,95.80
2022-09-21T07:38:53.975Z,95.70
2022-09-21T07:41:21.152Z,95.60
2022-09-21T07:43:47.984Z,95.20
2022-09-21T07:46:15.277Z,95.20
2022-09-21T07:48:43.599Z,95.00
2022-09-21T07:51:13.554Z,94.90
2022-09-21T07:53:42.841Z,94.80
2022-09-21T07:56:15.146Z,94.40
2022-09-21T07:59:00.388Z,94.20
2022-09-21T08:01:28.435Z,94.10
2022-09-21T08:03:56.828Z,94.10
2022-09-21T08:06:25.392Z,93.60
2022-09-21T08:08:56.733Z,93.30
2022-09-21T08:11:25.894Z,93.30
2022-09-21T08:13:54.535Z,93.00
2022-09-21T08:16:21.490Z,93.20
2022-09-21T08:18:48.286Z,93.00
2022-09-21T08:21:14.992Z,92.90
2022-09-21T08:23:42.856Z,92.60
2022-09-21T08:26:14.937Z,92.90
2022-09-21T08:28:41.574Z,92.70
2022-09-21T08:31:09.908Z,92.30
2022-09-21T08:33:36.706Z,92.20
2022-09-21T08:36:04.283Z,92.30
2022-09-21T08:38:35.704Z,92.40
2022-09-21T08:41:10.334Z,91.80
2022-09-21T08:43:43.342Z,91.80
2022-09-21T08:46:13.975Z,91.60
2022-09-21T08:48:46.188Z,91.30
2022-09-21T08:51:17.745Z,91.30
2022-09-21T08:53:46.798Z,91.70
2022-09-21T08:56:14.560Z,91.80
2022-09-21T08:58:42.122Z,91.50
2022-09-21T09:01:21.073Z,91.70
2022-09-21T09:03:57.196Z,91.30
2022-09-21T09:06:41.857Z,91.20
2022-09-21T09:09:40.021Z,91.60
2022-09-21T09:12:27.800Z,91.10
2022-09-21T09:15:17.716Z,91.10
2022-09-21T09:18:09.757Z,91.30
2022-09-21T09:21:08.079Z,91.70
2022-09-21T09:23:41.847Z,90.90
2022-09-21T09:26:15.664Z,90.70
2022-09-21T09:28:54.043Z,90.30
2022-09-21T09:31:22.928Z,89.60
2022-09-21T09:34:00.362Z,87.60
2022-09-21T09:36:56.622Z,89.70
2022-09-21T09:39:19.918Z,90.10
2022-09-21T09:41:55.514Z,90.40
2022-09-21T09:44:54.526Z,90.30
2022-09-21T09:47:48.837Z,90.40
2022-09-21T09:50:28.506Z,90.00
2022-09-21T09:53:04.257Z,90.10
2022-09-21T09:55:43.719Z,90.60
2022-09-21T09:58:20.731Z,91.20
2022-09-21T10:00:52.049Z,91.10
2022-09-21T10:03:21.588Z,91.10
2022-09-21T10:05:48.480Z,91.20
2022-09-21T10:08:36.998Z,91.10
2022-09-21T10:11:04.242Z,91.50
2022-09-21T10:13:34.255Z,91.60
2022-09-21T10:16:12.870Z,91.00
2022-09-21T10:18:44.530Z,90.60
2022-09-21T10:21:28.099Z,90.90
2022-09-21T10:24:18.942Z,90.90
2022-09-21T10:26:56.046Z,90.70
2022-09-21T10:29:22.780Z,89.80
2022-09-21T10:32:16.821Z,89.70
2022-09-21T10:35:00.813Z,90.00
2022-09-21T10:37:29.898Z,89.90
2022-09-21T10:39:57.192Z,90.20
2022-09-21T10:42:24.377Z,89.70
2022-09-21T10:44:53.411Z,87.90
2022-09-21T10:47:36.383Z,87.10
2022-09-21T10:50:06.764Z,88.10
2022-09-21T10:52:35.881Z,86.80
2022-09-21T10:55:03.066Z,87.20
2022-09-21T10:57:32.569Z,84.60
2022-09-21T11:00:13.064Z,85.30
2022-09-21T11:02:42.955Z,81.30
2022-09-21T11:05:13.098Z,83.00
2022-09-21T11:07:52.297Z,84.00
2022-09-21T11:10:24.384Z,83.40
2022-09-21T11:13:05.770Z,81.90
2022-09-21T11:15:52.782Z,83.50
2022-09-21T11:18:30.949Z,84.70
2022-09-21T11:21:11.100Z,85.90
2022-09-21T11:24:23.843Z,86.00
2022-09-21T11:26:56.417Z,85.70
2022-09-21T11:29:37.207Z,83.90
2022-09-21T11:32:45.011Z,84.20
2022-09-21T11:35:41.302Z,82.30
2022-09-21T11:38:34.306Z,81.00
2022-09-21T11:41:40.109Z,80.20
2022-09-21T11:44:24.898Z,79.80
2022-09-21T11:47:13.467Z,79.20
2022-09-21T11:49:44.063Z,78.10
2022-09-21T11:52:49.001Z,77.70
2022-09-21T11:55:37.361Z,78.90
2022-09-21T11:58:32.184Z,78.10
2022-09-21T12:01:17.340Z,77.50
2022-09-21T12:04:15.868Z,76.00
2022-09-21T12:07:01.474Z,77.90
2022-09-21T12:10:08.842Z,76.50
2022-09-21T12:13:02.687Z,74.80
2022-09-21T12:15:56.072Z,76.90
2022-09-21T12:18:47.997Z,77.60
2022-09-21T12:21:27.520Z,77.20
2022-09-21T12:24:03.131Z,75.40
2022-09-21T12:26:50.303Z,74.20
2022-09-21T12:29:25.746Z,74.90
2022-09-21T12:32:15.307Z,76.80
2022-09-21T12:34:46.374Z,78.50
2022-09-21T12:37:26.902Z,79.60
2022-09-21T12:40:19.431Z,79.90
2022-09-21T12:42:57.848Z,80.00
2022-09-21T12:45:30.105Z,78.90
2022-09-21T12:48:13.402Z,78.60
2022-09-21T12:50:55.029Z,79.10
2022-09-21T12:53:25.617Z,79.50
2022-09-21T12:56:09.519Z,79.30
2022-09-21T12:58:44.161Z,80.20
2022-09-21T13:01:29.273Z,80.20
2022-09-21T13:04:34.421Z,78.40
2022-09-21T13:07:18.546Z,79.20
2022-09-21T13:09:46.431Z,79.40
2022-09-21T13:12:30.499Z,76.80
2022-09-21T13:15:03.886Z,75.60
2022-09-21T13:17:32.635Z,77.40
2022-09-21T13:20:03.958Z,76.70
2022-09-21T13:22:33.296Z,78.60
2022-09-21T13:25:03.492Z,79.80
2022-09-21T13:28:01.451Z,80.20
2022-09-21T13:30:39.048Z,80.20
2022-09-21T13:33:25.667Z,81.30
2022-09-21T13:36:02.266Z,80.30
2022-09-21T13:38:37.435Z,79.50
2022-09-21T13:41:35.527Z,77.80
2022-09-21T13:44:46.174Z,76.80
2022-09-21T13:47:14.218Z,77.70
2022-09-21T13:49:44.958Z,78.80
2022-09-21T13:52:15.775Z,78.80
2022-09-21T13:54:45.502Z,79.40
2022-09-21T13:57:27.929Z,80.10
2022-09-21T14:00:17.642Z,80.70
2022-09-21T14:03:07.158Z,80.90
2022-09-21T14:05:43.305Z,81.60
2022-09-21T14:08:16.008Z,81.20
2022-09-21T14:11:22.356Z,79.20
2022-09-21T14:14:03.476Z,80.50
2022-09-21T14:16:37.379Z,80.00
2022-09-21T14:19:26.911Z,77.00
2022-09-21T14:22:06.392Z,76.70
2022-09-21T14:24:38.963Z,77.50
2022-09-21T14:27:33.417Z,77.70
2022-09-21T14:30:23.055Z,77.70
2022-09-21T14:33:20.275Z,79.40
2022-09-21T14:35:48.778Z,79.40
2022-09-21T14:38:25.908Z,79.10
2022-09-21T14:40:56.919Z,78.90
2022-09-21T14:43:36.047Z,77.70
2022-09-21T14:46:32.155Z,77.60
2022-09-21T14:49:11.013Z,76.60
2022-09-21T14:51:55.675Z,77.30
2022-09-21T14:54:57.201Z,76.80
2022-09-21T14:57:37.608Z,76.60
2022-09-21T15:00:14.531Z,77.20
2022-09-21T15:02:43.641Z,77.60
2022-09-21T15:05:16.584Z,77.80
2022-09-21T15:08:14.113Z,78.70
2022-09-21T15:11:11.891Z,79.00
2022-09-21T15:13:49.565Z,79.30
2022-09-21T15:16:28.729Z,79.40
2022-09-21T15:19:13.251Z,79.50
2022-09-21T15:21:45.748Z,78.60
2022-09-21T15:24:26.625Z,79.00
2022-09-21T15:27:01.794Z,79.60
2022-09-21T15:29:31.551Z,79.20
2022-09-21T15:31:59.695Z,79.40
2022-09-21T15:34:27.074Z,79.40
2022-09-21T15:36:53.780Z,78.80
2022-09-21T15:39:31.561Z,79.00
2022-09-21T15:42:17.758Z,78.80
2022-09-21T15:44:48.439Z,79.20
2022-09-21T15:47:18.113Z,79.50
2022-09-21T15:49:45.564Z,79.40
2022-09-21T15:52:37.876Z,78.90
2022-09-21T15:55:22.117Z,78.60
2022-09-21T15:57:54.391Z,78.50
2022-09-21T16:00:24.591Z,78.10
2022-09-21T16:03:16.338Z,77.70
2022-09-21T16:05:46.023Z,77.90
2022-09-21T16:08:28.030Z,77.80
2022-09-21T16:11:14.340Z,77.40
2022-09-21T16:14:03.726Z,77.00
2022-09-21T16:16:30.630Z,77.00
2022-09-21T16:19:00.101Z,77.00
2022-09-21T16:21:34.782Z,77.40
2022-09-21T16:24:12.353Z,77.80
2022-09-21T16:26:41.159Z,77.90
2022-09-21T16:29:08.553Z,78.20
2022-09-21T16:31:37.182Z,78.10
2022-09-21T16:34:26.106Z,78.00
2022-09-21T16:36:53.949Z,78.30
2022-09-21T16:39:22.459Z,78.50
2022-09-21T16:41:55.330Z,78.20
2022-09-21T16:44:25.605Z,78.20
2022-09-21T16:47:02.690Z,78.60
2022-09-21T16:49:34.948Z,78.50
2022-09-21T16:52:02.070Z,78.40
2022-09-21T16:54:29.070Z,78.60
2022-09-21T16:56:57.840Z,78.60
2022-09-21T16:59:25.191Z,78.80
2022-09-21T17:01:56.502Z,78.80
2022-09-21T17:04:26.928Z,78.90
2022-09-21T17:06:54.141Z,79.00
2022-09-21T17:09:25.752Z,78.80
2022-09-21T17:11:56.288Z,79.00
2022-09-21T17:14:24.015Z,79.10
2022-09-21T17:16:52.997Z,79.10
2022-09-21T17:19:19.981Z,79.30
2022-09-21T17:21:47.579Z,79.50
2022-09-21T17:24:32.842Z,79.70
2022-09-21T17:27:02.857Z,79.70
2022-09-21T17:29:30.901Z,79.80
2022-09-21T17:31:58.528Z,80.00
2022-09-21T17:34:27.553Z,80.20
2022-09-21T17:36:55.296Z,80.40
2022-09-21T17:39:23.868Z,80.60
2022-09-21T17:42:02.770Z,80.80
2022-09-21T17:44:55.071Z,81.10
2022-09-21T17:47:29.352Z,81.00
2022-09-21T17:50:27.053Z,81.10
2022-09-21T17:53:13.317Z,81.30
2022-09-21T17:55:48.367Z,81.50
2022-09-21T17:58:34.411Z,81.70
2022-09-21T18:01:09.811Z,81.70
2022-09-21T18:03:41.080Z,81.90
2022-09-21T18:06:09.643Z,82.00
2022-09-21T18:08:38.634Z,82.10
2022-09-21T18:11:33.095Z,82.10
2022-09-21T18:14:13.302Z,82.40
2022-09-21T18:17:01.492Z,82.20
2022-09-21T18:20:03.504Z,82.40
2022-09-21T18:22:33.587Z,82.30
2022-09-21T18:25:03.256Z,82.40
2022-09-21T18:27:30.879Z,82.40
2022-09-21T18:29:58.382Z,82.40
2022-09-21T18:32:36.765Z,82.30
2022-09-21T18:35:24.614Z,82.20
2022-09-21T18:38:20.851Z,82.30
2022-09-21T18:41:02.326Z,82.30
2022-09-21T18:43:47.601Z,82.20
2022-09-21T18:46:18.357Z,82.40
2022-09-21T18:49:02.681Z,82.60
2022-09-21T18:51:57.508Z,82.60
2022-09-21T18:54:27.693Z,82.60
2022-09-21T18:56:55.621Z,82.90
2022-09-21T18:59:22.751Z,83.80
2022-09-21T19:01:50.708Z,83.20
2022-09-21T19:04:18.669Z,83.40
2022-09-21T19:06:53.850Z,83.50
2022-09-21T19:10:15.472Z,83.60
2022-09-21T19:12:56.886Z,83.80
2022-09-21T19:16:01.736Z,83.90
2022-09-21T19:18:34.968Z,84.10
2022-09-21T19:21:31.536Z,84.20
2022-09-21T19:24:20.254Z,84.40
2022-09-21T19:26:57.802Z,84.60
2022-09-21T19:29:39.731Z,84.80
2022-09-21T19:32:16.541Z,84.90
2022-09-21T19:34:43.820Z,85.00
2022-09-21T19:37:11.178Z,85.10
2022-09-21T19:39:38.506Z,85.20
2022-09-21T19:42:30.364Z,85.20
2022-09-21T19:45:15.499Z,85.10
2022-09-21T19:47:53.525Z,85.00
2022-09-21T19:50:47.678Z,85.00
2022-09-21T19:53:33.931Z,85.10
2022-09-21T19:56:20.818Z,85.10
2022-09-21T19:59:06.259Z,85.30
2022-09-21T20:01:35.691Z,85.30
2022-09-21T20:04:02.742Z,85.40
2022-09-21T20:06:44.233Z,85.50
2022-09-21T20:09:40.089Z,85.60
2022-09-21T20:12:26.672Z,85.70
2022-09-21T20:15:16.024Z,85.70
2022-09-21T20:17:47.907Z,85.70
2022-09-21T20:20:26.252Z,85.80
2022-09-21T20:22:53.981Z,85.80
2022-09-21T20:25:26.402Z,85.80
2022-09-21T20:27:56.868Z,85.80
2022-09-21T20:30:26.481Z,85.80
2022-09-21T20:33:09.317Z,85.90
2022-09-21T20:35:36.146Z,86.00
2022-09-21T20:38:03.295Z,86.10
2022-09-21T20:40:31.970Z,86.20
2022-09-21T20:43:00.941Z,86.40
2022-09-21T20:45:28.443Z,86.60
2022-09-21T20:47:57.146Z,86.60
2022-09-21T20:50:26.632Z,86.80
2022-09-21T20:52:53.302Z,87.00
2022-09-21T20:55:20.417Z,87.20
2022-09-21T20:57:47.177Z,87.40
2022-09-21T21:00:16.126Z,87.60
2022-09-21T21:02:42.986Z,87.80
2022-09-21T21:05:11.199Z,88.00
2022-09-21T21:07:38.151Z,88.10
2022-09-21T21:10:05.152Z,88.20
2022-09-21T21:12:32.365Z,88.30
2022-09-21T21:14:59.315Z,88.40
2022-09-21T21:17:26.121Z,88.30
2022-09-21T21:19:53.279Z,88.40
2022-09-21T21:22:19.935Z,88.50
2022-09-21T21:24:47.178Z,88.50
2022-09-21T21:27:20.126Z,88.60
2022-09-21T21:29:50.041Z,88.60
2022-09-21T21:32:17.458Z,88.70
2022-09-21T21:34:44.642Z,88.70
2022-09-21T21:37:12.731Z,88.70
2022-09-21T21:39:39.900Z,88.70
2022-09-21T21:42:06.917Z,88.70
2022-09-21T21:44:33.638Z,88.70
2022-09-21T21:47:15.394Z,88.90
2022-09-21T21:49:47.219Z,88.90
2022-09-21T21:52:14.458Z,88.80
2022-09-21T21:54:41.423Z,88.90
2022-09-21T21:57:08.972Z,88.90
2022-09-21T21:59:36.243Z,88.90
2022-09-21T22:02:02.991Z,88.90
2022-09-21T22:04:30.671Z,88.90
2022-09-21T22:06:57.630Z,89.00
2022-09-21T22:09:24.315Z,89.00
2022-09-21T22:11:51.027Z,89.00
2022-09-21T22:14:18.472Z,89.10
2022-09-21T22:16:45.314Z,89.10
2022-09-21T22:19:12.292Z,89.10
2022-09-21T22:21:41.713Z,89.10
2022-09-21T22:24:09.663Z,89.10
2022-09-21T22:26:39.230Z,89.80
2022-09-21T22:29:07.337Z,89.10
2022-09-21T22:31:36.779Z,89.00
2022-09-21T22:34:04.166Z,89.00
2022-09-21T22:36:33.700Z,88.90
2022-09-21T22:39:01.190Z,89.00
2022-09-21T22:41:30.009Z,88.90
2022-09-21T22:43:58.032Z,89.00
2022-09-21T22:46:26.680Z,89.00
2022-09-21T22:48:53.405Z,89.00
2022-09-21T22:51:21.380Z,89.00
2022-09-21T22:53:48.966Z,89.00
2022-09-21T22:56:18.029Z,88.90
2022-09-21T22:58:46.967Z,88.90
2022-09-21T23:01:18.153Z,88.60
2022-09-21T23:03:49.334Z,88.50
2022-09-21T23:06:17.912Z,88.40
2022-09-21T23:08:51.292Z,88.40
2022-09-21T23:11:29.443Z,88.20
2022-09-21T23:13:57.330Z,88.20
2022-09-21T23:16:25.308Z,88.10
2022-09-21T23:18:52.098Z,88.10
2022-09-21T23:21:21.106Z,88.00
2022-09-21T23:23:48.029Z,88.00
2022-09-21T23:26:22.728Z,87.90
2022-09-21T23:28:55.538Z,87.80
2022-09-21T23:31:23.105Z,87.80
2022-09-21T23:33:52.245Z,87.60
2022-09-21T23:36:21.737Z,87.60
2022-09-21T23:38:49.120Z,87.50
2022-09-21T23:41:18.594Z,87.40
2022-09-21T23:43:46.339Z,87.40
2022-09-21T23:46:16.116Z,87.30
2022-09-21T23:48:43.507Z,87.20
2022-09-21T23:51:10.956Z,87.20
2022-09-21T23:53:37.960Z,87.20
2022-09-21T23:56:05.865Z,87.30
2022-09-21T23:58:32.537Z,87.30
